createdAt,value
2018-05-27T00:01:23.481Z,68.60
2018-05-27T00:03:51.247Z,68.60
2018-05-27T00:06:19.010Z,68.80
2018-05-27T00:08:46.672Z,68.60
2018-05-27T00:11:14.439Z,68.50
2018-05-27T00:13:42.206Z,68.60
2018-05-27T00:16:09.864Z,68.80
2018-05-27T00:18:37.556Z,69.20
2018-05-27T00:21:05.404Z,69.60
2018-05-27T00:23:33.098Z,69.70
2018-05-27T00:26:01.644Z,70.50
2018-05-27T00:28:29.307Z,70.00
2018-05-27T00:30:57.072Z,69.90
2018-05-27T00:33:24.737Z,70.10
2018-05-27T00:35:52.497Z,70.30
2018-05-27T00:38:20.264Z,70.60
2018-05-27T00:40:47.885Z,70.70
2018-05-27T00:43:15.557Z,70.70
2018-05-27T00:45:43.176Z,70.60
2018-05-27T00:48:10.808Z,70.50
2018-05-27T00:50:38.571Z,70.30
2018-05-27T00:53:06.226Z,70.10
2018-05-27T00:55:33.998Z,69.80
2018-05-27T00:58:01.642Z,69.40
2018-05-27T01:00:29.322Z,69.40
2018-05-27T01:02:56.989Z,69.20
2018-05-27T01:05:24.621Z,69.00
2018-05-27T01:07:52.415Z,68.80
2018-05-27T01:10:20.097Z,69.00
2018-05-27T01:12:47.840Z,69.20
2018-05-27T01:15:15.533Z,68.50
2018-05-27T01:17:43.193Z,68.50
2018-05-27T01:20:11.613Z,68.50
2018-05-27T01:22:39.245Z,68.50
2018-05-27T01:25:06.880Z,68.40
2018-05-27T01:27:34.635Z,68.50
2018-05-27T01:30:02.430Z,68.70
2018-05-27T01:32:30.055Z,68.30
2018-05-27T01:34:57.827Z,68.00
2018-05-27T01:37:25.694Z,67.80
2018-05-27T01:39:53.458Z,68.10
2018-05-27T01:42:21.223Z,69.20
2018-05-27T01:44:48.890Z,69.90
2018-05-27T01:47:16.517Z,70.30
2018-05-27T01:49:44.242Z,70.40
2018-05-27T01:52:12.077Z,70.60
2018-05-27T01:54:39.711Z,70.80
2018-05-27T01:57:07.373Z,70.80
2018-05-27T01:59:35.171Z,71.10
2018-05-27T02:02:02.934Z,71.30
2018-05-27T02:04:30.695Z,71.10
2018-05-27T02:06:58.366Z,71.40
2018-05-27T02:09:26.121Z,71.30
2018-05-27T02:11:53.782Z,71.20
2018-05-27T02:14:21.551Z,71.40
2018-05-27T02:16:49.318Z,71.60
2018-05-27T02:19:16.979Z,71.80
2018-05-27T02:21:44.605Z,71.80
2018-05-27T02:24:12.317Z,72.20
2018-05-27T02:26:40.072Z,72.50
2018-05-27T02:29:07.710Z,72.60
2018-05-27T02:31:35.408Z,72.80
2018-05-27T02:34:03.034Z,72.90
2018-05-27T02:36:30.645Z,72.70
2018-05-27T02:38:58.483Z,72.80
2018-05-27T02:41:26.110Z,73.10
2018-05-27T02:43:53.807Z,73.40
2018-05-27T02:46:21.485Z,73.30
2018-05-27T02:48:49.161Z,72.90
2018-05-27T02:51:16.899Z,73.60
2018-05-27T02:53:44.547Z,73.30
2018-05-27T02:56:12.323Z,73.60
2018-05-27T02:58:40.019Z,73.90
2018-05-27T03:01:07.853Z,73.70
2018-05-27T03:03:35.721Z,73.80
2018-05-27T03:06:03.485Z,72.80
2018-05-27T03:08:31.187Z,72.50
2018-05-27T03:10:58.843Z,71.90
2018-05-27T03:13:27.393Z,71.80
2018-05-27T03:15:55.049Z,71.70
2018-05-27T03:18:22.761Z,71.50
2018-05-27T03:20:50.521Z,71.90
2018-05-27T03:23:19.068Z,71.70
2018-05-27T03:25:46.933Z,71.70
2018-05-27T03:28:14.698Z,71.80
2018-05-27T03:30:42.567Z,72.10
2018-05-27T03:33:10.330Z,72.10
2018-05-27T03:35:37.956Z,71.80
2018-05-27T03:38:05.655Z,71.40
2018-05-27T03:40:33.351Z,70.80
2018-05-27T03:43:01.004Z,70.70
2018-05-27T03:45:28.632Z,71.80
2018-05-27T03:47:56.407Z,70.70
2018-05-27T03:50:24.273Z,70.70
2018-05-27T03:52:52.039Z,70.50
2018-05-27T03:55:19.705Z,70.40
2018-05-27T03:57:47.388Z,70.30
2018-05-27T04:00:15.024Z,70.30
2018-05-27T04:02:42.673Z,69.80
2018-05-27T04:05:24.174Z,69.90
2018-05-27T04:08:03.819Z,69.90
2018-05-27T04:10:31.583Z,69.70
2018-05-27T04:12:59.228Z,69.70
2018-05-27T04:15:27.011Z,69.60
2018-05-27T04:17:54.775Z,69.40
2018-05-27T04:20:22.406Z,69.50
2018-05-27T04:22:50.202Z,68.80
2018-05-27T04:25:17.902Z,68.10
2018-05-27T04:27:46.448Z,67.60
2018-05-27T04:30:14.132Z,67.50
2018-05-27T04:32:41.759Z,67.40
2018-05-27T04:35:09.538Z,66.90
2018-05-27T04:37:37.406Z,66.50
2018-05-27T04:40:05.170Z,65.80
2018-05-27T04:42:32.935Z,65.30
2018-05-27T04:45:00.596Z,65.20
2018-05-27T04:47:28.464Z,64.90
2018-05-27T04:49:56.128Z,65.30
2018-05-27T04:52:23.748Z,65.90
2018-05-27T04:54:52.168Z,66.00
2018-05-27T04:57:19.795Z,65.90
2018-05-27T04:59:47.431Z,66.10
2018-05-27T05:02:15.902Z,64.80
2018-05-27T05:04:43.530Z,65.40
2018-05-27T05:07:11.180Z,65.60
2018-05-27T05:09:38.801Z,65.60
2018-05-27T05:12:07.245Z,65.70
2018-05-27T05:14:35.016Z,65.20
2018-05-27T05:17:02.771Z,65.10
2018-05-27T05:19:30.441Z,65.30
2018-05-27T05:21:58.134Z,65.00
2018-05-27T05:24:26.680Z,64.60
2018-05-27T05:26:54.298Z,64.60
2018-05-27T05:29:21.929Z,63.80
2018-05-27T05:31:49.770Z,64.20
2018-05-27T05:34:17.395Z,64.00
2018-05-27T05:36:45.040Z,64.30
2018-05-27T05:39:13.575Z,64.40
2018-05-27T05:41:41.439Z,64.40
2018-05-27T05:44:09.206Z,64.20
2018-05-27T05:46:36.845Z,63.50
2018-05-27T05:49:04.736Z,63.60
2018-05-27T05:51:32.500Z,63.10
2018-05-27T05:54:00.163Z,63.10
2018-05-27T05:56:27.800Z,62.80
2018-05-27T05:58:55.423Z,63.00
2018-05-27T06:01:23.178Z,63.00
2018-05-27T06:03:50.807Z,64.20
2018-05-27T06:06:18.433Z,63.10
2018-05-27T06:08:46.854Z,62.90
2018-05-27T06:11:14.542Z,62.90
2018-05-27T06:13:42.311Z,62.30
2018-05-27T06:16:09.924Z,62.60
2018-05-27T06:18:37.537Z,62.50
2018-05-27T06:21:05.370Z,63.10
2018-05-27T06:23:33.136Z,63.10
2018-05-27T06:26:00.801Z,63.20
2018-05-27T06:28:28.462Z,62.50
2018-05-27T06:30:56.079Z,62.50
2018-05-27T06:33:23.753Z,63.00
2018-05-27T06:35:51.385Z,63.00
2018-05-27T06:38:20.511Z,63.20
2018-05-27T06:40:48.162Z,63.20
2018-05-27T06:43:16.554Z,64.30
2018-05-27T06:45:44.204Z,64.10
2018-05-27T06:48:12.653Z,64.80
2018-05-27T06:50:40.299Z,64.70
2018-05-27T06:53:08.059Z,64.60
2018-05-27T06:55:35.919Z,65.10
2018-05-27T06:58:03.538Z,64.70
2018-05-27T07:00:31.918Z,65.00
2018-05-27T07:03:00.447Z,65.20
2018-05-27T07:05:28.137Z,65.10
2018-05-27T07:07:57.311Z,66.10
2018-05-27T07:10:24.992Z,66.00
2018-05-27T07:12:52.623Z,66.10
2018-05-27T07:15:20.396Z,65.80
2018-05-27T07:17:48.160Z,65.40
2018-05-27T07:20:15.856Z,66.30
2018-05-27T07:22:43.645Z,66.70
2018-05-27T07:25:11.553Z,68.20
2018-05-27T07:27:39.180Z,70.00
2018-05-27T07:30:07.700Z,72.20
2018-05-27T07:32:35.370Z,72.00
2018-05-27T07:35:03.004Z,73.50
2018-05-27T07:37:30.942Z,72.70
2018-05-27T07:39:59.373Z,69.80
2018-05-27T07:42:27.090Z,69.70
2018-05-27T07:44:55.005Z,70.30
2018-05-27T07:47:22.666Z,71.70
2018-05-27T07:49:50.307Z,73.80
2018-05-27T07:52:17.927Z,72.70
2018-05-27T07:54:47.087Z,74.10
2018-05-27T07:57:14.855Z,74.00
2018-05-27T07:59:42.473Z,73.20
2018-05-27T08:02:10.897Z,71.70
2018-05-27T08:04:38.622Z,71.70
2018-05-27T08:07:07.808Z,70.90
2018-05-27T08:09:35.624Z,70.90
2018-05-27T08:12:03.278Z,71.30
2018-05-27T08:14:30.892Z,71.80
2018-05-27T08:16:59.322Z,74.20
2018-05-27T08:19:27.091Z,74.00
2018-05-27T08:21:54.968Z,74.00
2018-05-27T08:24:22.628Z,75.20
2018-05-27T08:26:50.451Z,73.40
2018-05-27T08:29:18.075Z,72.50
2018-05-27T08:31:46.019Z,72.60
2018-05-27T08:34:13.708Z,73.10
2018-05-27T08:36:41.373Z,72.90
2018-05-27T08:39:09.210Z,72.10
2018-05-27T08:41:36.880Z,71.40
2018-05-27T08:44:04.845Z,69.90
2018-05-27T08:46:32.630Z,71.10
2018-05-27T08:49:00.272Z,70.60
2018-05-27T08:51:31.118Z,70.70
2018-05-27T08:53:58.813Z,71.10
2018-05-27T08:56:26.577Z,70.00
2018-05-27T08:58:55.010Z,70.40
2018-05-27T09:01:25.859Z,70.20
2018-05-27T09:03:53.555Z,70.30
2018-05-27T09:06:21.960Z,69.90
2018-05-27T09:08:49.627Z,69.80
2018-05-27T09:11:17.320Z,70.20
2018-05-27T09:13:45.187Z,70.30
2018-05-27T09:16:12.804Z,70.50
2018-05-27T09:18:41.253Z,68.60
2018-05-27T09:21:09.023Z,68.60
2018-05-27T09:23:36.646Z,68.20
2018-05-27T09:26:04.527Z,67.70
2018-05-27T09:28:32.287Z,68.00
2018-05-27T09:31:00.053Z,67.90
2018-05-27T09:33:27.734Z,67.10
2018-05-27T09:35:55.417Z,66.70
2018-05-27T09:38:23.057Z,66.50
2018-05-27T09:40:50.721Z,65.90
2018-05-27T09:43:18.372Z,65.60
2018-05-27T09:45:45.978Z,65.90
2018-05-27T09:48:14.508Z,64.80
2018-05-27T09:50:42.200Z,64.70
2018-05-27T09:53:09.848Z,64.80
2018-05-27T09:55:37.700Z,64.50
2018-05-27T09:58:05.380Z,64.80
2018-05-27T10:00:33.000Z,63.90
2018-05-27T10:03:00.666Z,63.00
2018-05-27T10:05:28.279Z,62.10
2018-05-27T10:07:56.082Z,61.40
2018-05-27T10:10:23.804Z,61.70
2018-05-27T10:12:51.476Z,60.40
2018-05-27T10:15:19.233Z,60.20
2018-05-27T10:17:46.844Z,60.40
2018-05-27T10:20:14.464Z,60.50
2018-05-27T10:22:42.104Z,60.00
2018-05-27T10:25:09.765Z,59.60
2018-05-27T10:27:37.619Z,59.50
2018-05-27T10:30:05.282Z,59.60
2018-05-27T10:32:32.899Z,59.50
2018-05-27T10:35:01.426Z,58.40
2018-05-27T10:37:29.063Z,58.40
2018-05-27T10:39:56.852Z,58.50
2018-05-27T10:42:24.618Z,58.40
2018-05-27T10:44:52.244Z,57.40
2018-05-27T10:47:19.929Z,58.00
2018-05-27T10:49:47.706Z,57.10
2018-05-27T10:52:15.357Z,56.40
2018-05-27T10:54:43.440Z,56.00
2018-05-27T10:57:11.085Z,55.80
2018-05-27T10:59:38.700Z,54.90
2018-05-27T11:02:06.461Z,55.10
2018-05-27T11:04:34.195Z,55.00
2018-05-27T11:07:02.062Z,54.70
2018-05-27T11:09:29.930Z,54.10
2018-05-27T11:11:57.557Z,54.40
2018-05-27T11:14:25.356Z,54.60
2018-05-27T11:16:53.213Z,54.30
2018-05-27T11:19:21.017Z,54.20
2018-05-27T11:21:48.640Z,54.80
2018-05-27T11:24:16.262Z,53.90
2018-05-27T11:26:44.792Z,54.30
2018-05-27T11:29:12.557Z,54.30
2018-05-27T11:31:40.251Z,53.70
2018-05-27T11:34:07.889Z,52.90
2018-05-27T11:36:35.544Z,53.70
2018-05-27T11:39:03.208Z,52.30
2018-05-27T11:41:30.890Z,52.20
2018-05-27T11:43:58.550Z,51.80
2018-05-27T11:46:26.222Z,50.80
2018-05-27T11:48:53.832Z,51.60
2018-05-27T11:51:21.546Z,51.90
2018-05-27T11:53:49.215Z,52.10
2018-05-27T11:56:16.832Z,51.80
2018-05-27T11:58:44.813Z,51.70
2018-05-27T12:01:12.435Z,51.00
2018-05-27T12:03:40.116Z,51.30
2018-05-27T12:06:16.352Z,51.30
2018-05-27T12:08:45.338Z,51.80
2018-05-27T12:11:13.803Z,51.50
2018-05-27T12:13:41.483Z,51.40
2018-05-27T12:16:09.875Z,51.30
2018-05-27T12:18:38.506Z,51.50
2018-05-27T12:21:06.269Z,51.50
2018-05-27T12:23:34.032Z,52.10
2018-05-27T12:26:01.832Z,52.10
2018-05-27T12:28:29.666Z,52.40
2018-05-27T12:30:57.312Z,52.60
2018-05-27T12:33:25.034Z,52.50
2018-05-27T12:35:53.485Z,52.00
2018-05-27T12:38:21.096Z,52.00
2018-05-27T12:40:48.707Z,52.30
2018-05-27T12:43:16.464Z,52.10
2018-05-27T12:45:44.227Z,51.90
2018-05-27T12:48:12.193Z,51.70
2018-05-27T12:50:39.958Z,51.00
2018-05-27T12:53:07.569Z,51.00
2018-05-27T12:55:36.004Z,50.60
2018-05-27T12:58:03.870Z,50.60
2018-05-27T13:00:31.553Z,50.50
2018-05-27T13:02:59.156Z,49.80
2018-05-27T13:05:26.801Z,50.70
2018-05-27T13:07:55.241Z,49.90
2018-05-27T13:10:22.999Z,49.90
2018-05-27T13:12:50.765Z,49.40
2018-05-27T13:15:18.443Z,49.40
2018-05-27T13:17:46.124Z,50.10
2018-05-27T13:20:14.673Z,49.60
2018-05-27T13:22:42.538Z,49.30
2018-05-27T13:25:10.200Z,48.40
2018-05-27T13:27:38.071Z,48.90
2018-05-27T13:30:05.787Z,49.10
2018-05-27T13:32:33.457Z,48.40
2018-05-27T13:35:02.022Z,48.00
2018-05-27T13:37:31.410Z,48.60
2018-05-27T13:40:00.067Z,48.80
2018-05-27T13:42:27.747Z,48.60
2018-05-27T13:44:55.549Z,48.10
2018-05-27T13:47:23.378Z,48.20
2018-05-27T13:49:51.015Z,47.80
2018-05-27T13:52:18.660Z,48.00
2018-05-27T13:54:46.382Z,47.80
2018-05-27T13:57:14.046Z,48.00
2018-05-27T13:59:41.693Z,47.40
2018-05-27T14:02:09.309Z,47.30
2018-05-27T14:04:37.033Z,47.70
2018-05-27T14:07:04.701Z,46.50
2018-05-27T14:09:33.133Z,47.10
2018-05-27T14:12:00.913Z,47.10
2018-05-27T14:14:28.674Z,47.10
2018-05-27T14:16:56.437Z,46.90
2018-05-27T14:19:24.084Z,46.70
2018-05-27T14:21:51.763Z,46.40
2018-05-27T14:24:19.554Z,47.20
2018-05-27T14:26:47.210Z,47.20
2018-05-27T14:29:15.094Z,47.20
2018-05-27T14:31:43.669Z,47.90
2018-05-27T14:34:11.442Z,47.90
2018-05-27T14:36:39.991Z,47.80
2018-05-27T14:39:07.756Z,47.80
2018-05-27T14:41:35.624Z,47.60
2018-05-27T14:44:04.311Z,47.60
2018-05-27T14:46:31.963Z,47.50
2018-05-27T14:48:59.622Z,47.70
2018-05-27T14:51:27.323Z,47.10
2018-05-27T14:53:54.959Z,47.70
2018-05-27T14:56:22.727Z,48.00
2018-05-27T14:58:50.591Z,47.50
2018-05-27T15:01:18.203Z,47.80
2018-05-27T15:03:46.635Z,48.70
2018-05-27T15:06:14.389Z,48.70
2018-05-27T15:08:42.000Z,48.60
2018-05-27T15:11:10.539Z,48.10
2018-05-27T15:13:38.406Z,48.70
2018-05-27T15:16:06.085Z,47.80
2018-05-27T15:18:33.972Z,48.20
2018-05-27T15:21:02.522Z,49.00
2018-05-27T15:23:30.154Z,48.30
2018-05-27T15:25:57.787Z,48.20
2018-05-27T15:28:26.222Z,48.50
2018-05-27T15:30:53.901Z,48.50
2018-05-27T15:33:21.688Z,48.90
2018-05-27T15:35:50.068Z,48.40
2018-05-27T15:38:18.538Z,48.40
2018-05-27T15:40:46.152Z,48.40
2018-05-27T15:43:13.933Z,48.50
2018-05-27T15:45:42.624Z,49.10
2018-05-27T15:48:10.937Z,49.90
2018-05-27T15:50:40.315Z,50.50
2018-05-27T15:53:09.232Z,50.40
2018-05-27T15:55:38.908Z,50.30
2018-05-27T15:58:10.070Z,50.30
2018-05-27T16:00:37.968Z,50.80
2018-05-27T16:03:06.608Z,50.30
2018-05-27T16:05:34.583Z,50.20
2018-05-27T16:08:02.368Z,50.00
2018-05-27T16:10:30.181Z,49.80
2018-05-27T16:12:58.201Z,49.80
2018-05-27T16:15:25.949Z,50.00
2018-05-27T16:17:53.751Z,50.00
2018-05-27T16:20:22.436Z,50.30
2018-05-27T16:22:50.367Z,50.20
2018-05-27T16:25:19.074Z,50.20
2018-05-27T16:27:46.854Z,50.10
2018-05-27T16:30:15.602Z,50.50
2018-05-27T16:32:44.805Z,50.40
2018-05-27T16:35:12.604Z,50.30
2018-05-27T16:37:42.587Z,51.00
2018-05-27T16:40:12.535Z,50.80
2018-05-27T16:42:40.372Z,51.00
2018-05-27T16:45:08.163Z,51.30
2018-05-27T16:47:36.796Z,51.60
2018-05-27T16:50:04.582Z,51.80
2018-05-27T16:52:32.210Z,51.80
2018-05-27T16:55:00.419Z,51.70
2018-05-27T16:57:30.037Z,52.10
2018-05-27T16:59:57.716Z,51.80
2018-05-27T17:02:25.379Z,52.90
2018-05-27T17:04:52.988Z,52.40
2018-05-27T17:07:20.701Z,52.30
2018-05-27T17:09:48.365Z,52.50
2018-05-27T17:12:16.107Z,52.80
2018-05-27T17:14:43.794Z,53.00
2018-05-27T17:17:13.071Z,53.60
2018-05-27T17:19:40.701Z,53.60
2018-05-27T17:22:08.596Z,53.70
2018-05-27T17:24:36.389Z,54.00
2018-05-27T17:27:04.154Z,54.20
2018-05-27T17:29:31.905Z,54.50
2018-05-27T17:31:59.571Z,54.10
2018-05-27T17:34:27.317Z,54.10
2018-05-27T17:36:55.082Z,54.30
2018-05-27T17:39:22.877Z,54.50
2018-05-27T17:41:51.420Z,54.60
2018-05-27T17:44:19.060Z,55.00
2018-05-27T17:46:46.775Z,54.70
2018-05-27T17:49:14.397Z,55.00
2018-05-27T17:51:42.034Z,55.00
2018-05-27T17:54:10.563Z,55.30
2018-05-27T17:56:38.330Z,55.10
2018-05-27T17:59:05.957Z,55.10
2018-05-27T18:01:33.611Z,55.20
2018-05-27T18:04:02.138Z,55.40
2018-05-27T18:06:29.779Z,55.40
2018-05-27T18:08:57.745Z,55.40
2018-05-27T18:11:25.479Z,55.60
2018-05-27T18:13:53.866Z,56.00
2018-05-27T18:16:22.314Z,56.30
2018-05-27T18:18:50.060Z,56.20
2018-05-27T18:21:17.849Z,56.40
2018-05-27T18:23:45.711Z,56.50
2018-05-27T18:26:13.761Z,56.60
2018-05-27T18:28:41.610Z,56.70
2018-05-27T18:31:12.356Z,56.70
2018-05-27T18:33:41.942Z,57.00
2018-05-27T18:36:09.767Z,57.00
2018-05-27T18:38:37.539Z,57.10
2018-05-27T18:41:06.088Z,57.40
2018-05-27T18:43:33.765Z,57.30
2018-05-27T18:46:02.372Z,57.40
2018-05-27T18:48:30.930Z,58.30
2018-05-27T18:51:00.318Z,57.60
2018-05-27T18:53:27.991Z,57.70
2018-05-27T18:55:55.622Z,57.90
2018-05-27T18:58:23.336Z,58.50
2018-05-27T19:00:51.018Z,58.10
2018-05-27T19:03:20.675Z,58.40
2018-05-27T19:05:48.316Z,58.40
2018-05-27T19:08:16.035Z,58.50
2018-05-27T19:10:44.587Z,59.40
2018-05-27T19:13:12.248Z,58.70
2018-05-27T19:15:39.852Z,58.80
2018-05-27T19:18:08.388Z,59.60
2018-05-27T19:20:36.035Z,59.50
2018-05-27T19:23:03.817Z,59.20
2018-05-27T19:25:31.614Z,59.10
2018-05-27T19:27:59.237Z,59.40
2018-05-27T19:30:26.848Z,58.90
2018-05-27T19:32:55.269Z,60.50
2018-05-27T19:35:22.970Z,60.00
2018-05-27T19:37:50.730Z,60.10
2018-05-27T19:40:18.402Z,60.10
2018-05-27T19:42:46.047Z,60.20
2018-05-27T19:45:13.663Z,60.00
2018-05-27T19:47:42.209Z,60.50
2018-05-27T19:50:09.816Z,60.50
2018-05-27T19:52:37.506Z,61.70
2018-05-27T19:55:05.151Z,60.30
2018-05-27T19:57:32.857Z,60.60
2018-05-27T20:00:00.523Z,60.50
2018-05-27T20:02:28.155Z,60.80
2018-05-27T20:04:55.768Z,61.00
2018-05-27T20:07:24.403Z,61.00
2018-05-27T20:09:52.075Z,61.00
2018-05-27T20:12:19.705Z,61.40
2018-05-27T20:14:47.369Z,61.60
2018-05-27T20:17:15.091Z,61.70
2018-05-27T20:19:43.508Z,61.50
2018-05-27T20:22:11.228Z,62.10
2018-05-27T20:24:38.964Z,63.00
2018-05-27T20:27:06.869Z,62.60
2018-05-27T20:29:35.477Z,62.40
2018-05-27T20:32:03.143Z,62.40
2018-05-27T20:34:30.864Z,62.10
2018-05-27T20:36:58.529Z,61.80
2018-05-27T20:39:26.287Z,61.70
2018-05-27T20:41:54.055Z,61.20
2018-05-27T20:44:21.679Z,61.60
2018-05-27T20:46:49.460Z,62.00
2018-05-27T20:49:17.109Z,61.40
2018-05-27T20:51:44.886Z,61.20
2018-05-27T20:54:12.756Z,62.30
2018-05-27T20:56:40.457Z,61.00
2018-05-27T20:59:08.295Z,61.00
2018-05-27T21:01:36.082Z,61.00
2018-05-27T21:04:05.246Z,61.00
2018-05-27T21:06:33.021Z,60.90
2018-05-27T21:09:00.683Z,61.30
2018-05-27T21:11:28.303Z,61.40
2018-05-27T21:13:56.106Z,61.60
2018-05-27T21:16:23.899Z,61.70
2018-05-27T21:18:51.734Z,62.00
2018-05-27T21:21:20.165Z,62.60
2018-05-27T21:23:48.600Z,62.90
2018-05-27T21:26:16.361Z,62.90
2018-05-27T21:28:44.025Z,63.30
2018-05-27T21:31:11.688Z,63.90
2018-05-27T21:33:39.300Z,64.20
2018-05-27T21:36:07.725Z,64.60
2018-05-27T21:38:35.591Z,64.60
2018-05-27T21:41:03.227Z,65.10
2018-05-27T21:43:30.832Z,65.30
2018-05-27T21:45:58.578Z,65.50
2018-05-27T21:48:26.268Z,65.60
2018-05-27T21:50:54.006Z,66.00
2018-05-27T21:53:21.672Z,66.80
2018-05-27T21:55:50.972Z,66.10
2018-05-27T21:58:18.736Z,66.30
2018-05-27T22:00:46.395Z,66.10
2018-05-27T22:03:13.999Z,66.70
2018-05-27T22:05:42.472Z,67.10
2018-05-27T22:08:10.138Z,67.00
2018-05-27T22:10:37.765Z,67.20
2018-05-27T22:13:05.403Z,67.80
2018-05-27T22:15:33.122Z,67.50
2018-05-27T22:18:00.955Z,67.60
2018-05-27T22:20:28.823Z,68.00
2018-05-27T22:22:56.449Z,67.90
2018-05-27T22:25:24.095Z,68.20
2018-05-27T22:27:53.285Z,68.90
2018-05-27T22:30:21.116Z,68.90
2018-05-27T22:32:48.876Z,69.20
2018-05-27T22:35:16.640Z,69.60
2018-05-27T22:37:44.409Z,70.00
2018-05-27T22:40:12.377Z,71.00
2018-05-27T22:42:40.142Z,70.80
2018-05-27T22:45:07.907Z,71.20
2018-05-27T22:47:35.705Z,71.30
2018-05-27T22:50:03.539Z,71.00
2018-05-27T22:52:31.164Z,71.20
2018-05-27T22:54:58.777Z,70.90
2018-05-27T22:57:26.437Z,71.00
2018-05-27T22:59:54.189Z,71.00
2018-05-27T23:02:21.843Z,71.20
2018-05-27T23:04:49.468Z,71.40
2018-05-27T23:07:18.095Z,72.00
2018-05-27T23:09:45.789Z,72.00
2018-05-27T23:12:13.448Z,72.20
2018-05-27T23:14:41.087Z,72.50
2018-05-27T23:17:08.734Z,72.50
2018-05-27T23:19:36.379Z,72.90
2018-05-27T23:22:04.170Z,73.10
2018-05-27T23:24:31.942Z,73.10
2018-05-27T23:26:59.629Z,72.90
2018-05-27T23:29:27.257Z,73.10
2018-05-27T23:31:54.925Z,73.50
2018-05-27T23:34:22.727Z,73.80
2018-05-27T23:36:51.169Z,74.00
2018-05-27T23:39:18.831Z,74.00
2018-05-27T23:41:46.509Z,73.80
2018-05-27T23:44:14.258Z,73.60
2018-05-27T23:46:41.897Z,73.70
2018-05-27T23:49:09.555Z,73.80
2018-05-27T23:51:37.213Z,73.90
2018-05-27T23:54:04.856Z,74.10
2018-05-27T23:56:33.263Z,74.30
2018-05-27T23:59:00.908Z,74.20
